createdAt,value
2023-11-20T00:01:22.626Z,5.75
2023-11-20T00:03:51.719Z,5.53
2023-11-20T00:06:18.533Z,5.70
2023-11-20T00:08:46.778Z,6.07
2023-11-20T00:11:17.035Z,7.75
2023-11-20T00:13:44.276Z,5.40
2023-11-20T00:16:14.244Z,5.13
2023-11-20T00:18:41.670Z,5.57
2023-11-20T00:21:08.607Z,5.18
2023-11-20T00:23:35.331Z,5.57
2023-11-20T00:26:02.729Z,6.47
2023-11-20T00:28:29.408Z,6.60
2023-11-20T00:30:56.207Z,6.28
2023-11-20T00:33:22.910Z,4.97
2023-11-20T00:35:49.628Z,6.20
2023-11-20T00:38:16.287Z,6.57
2023-11-20T00:40:42.915Z,5.65
2023-11-20T00:43:09.674Z,7.47
2023-11-20T00:45:36.605Z,4.65
2023-11-20T00:48:03.377Z,3.92
2023-11-20T00:50:30.229Z,5.63
2023-11-20T00:52:56.909Z,4.93
2023-11-20T00:55:23.635Z,5.00
2023-11-20T00:57:50.341Z,6.63
2023-11-20T01:00:19.700Z,4.53
2023-11-20T01:02:46.722Z,6.25
2023-11-20T01:05:13.548Z,5.45
2023-11-20T01:07:40.290Z,6.00
2023-11-20T01:10:07.998Z,7.63
2023-11-20T01:12:34.915Z,5.55
2023-11-20T01:15:02.554Z,5.88
2023-11-20T01:17:29.983Z,4.20
2023-11-20T01:19:56.665Z,5.85
2023-11-20T01:22:23.394Z,4.97
2023-11-20T01:24:50.020Z,10.30
2023-11-20T01:27:17.035Z,4.25
2023-11-20T01:29:43.852Z,6.38
2023-11-20T01:32:10.492Z,5.32
2023-11-20T01:34:37.133Z,5.07
2023-11-20T01:37:04.172Z,7.35
2023-11-20T01:39:32.507Z,8.02
2023-11-20T01:41:59.288Z,5.40
2023-11-20T01:44:25.980Z,7.28
2023-11-20T01:46:52.723Z,5.57
2023-11-20T01:49:19.477Z,5.28
2023-11-20T01:51:46.919Z,5.35
2023-11-20T01:54:14.900Z,5.45
2023-11-20T01:56:41.821Z,6.47
2023-11-20T01:59:09.121Z,5.82
2023-11-20T02:01:36.243Z,5.40
2023-11-20T02:04:05.144Z,5.32
2023-11-20T02:06:32.162Z,6.70
2023-11-20T02:08:58.866Z,6.10
2023-11-20T02:11:27.410Z,6.63
2023-11-20T02:13:55.572Z,6.72
2023-11-20T02:16:22.406Z,5.97
2023-11-20T02:18:49.139Z,5.10
2023-11-20T02:21:15.904Z,5.18
2023-11-20T02:23:42.585Z,5.32
2023-11-20T02:26:34.922Z,6.38
2023-11-20T02:29:14.646Z,5.55
2023-11-20T02:31:42.996Z,8.43
2023-11-20T02:34:10.302Z,4.93
2023-11-20T02:36:37.330Z,5.55
2023-11-20T02:39:04.114Z,7.72
2023-11-20T02:41:31.087Z,7.65
2023-11-20T02:43:57.863Z,4.97
2023-11-20T02:46:24.558Z,7.72
2023-11-20T02:48:51.238Z,4.90
2023-11-20T02:51:17.894Z,5.95
2023-11-20T02:53:44.533Z,6.75
2023-11-20T02:56:11.160Z,6.25
2023-11-20T02:58:37.763Z,10.23
2023-11-20T03:01:06.062Z,4.80
2023-11-20T03:03:32.926Z,6.18
2023-11-20T03:05:59.657Z,6.32
2023-11-20T03:08:26.345Z,4.85
2023-11-20T03:10:53.093Z,7.30
2023-11-20T03:13:19.806Z,5.82
2023-11-20T03:15:46.507Z,5.35
2023-11-20T03:18:13.531Z,5.53
2023-11-20T03:20:40.206Z,6.60
2023-11-20T03:23:06.910Z,5.78
2023-11-20T03:25:33.514Z,6.68
2023-11-20T03:28:00.212Z,6.13
2023-11-20T03:30:28.697Z,6.30
2023-11-20T03:32:55.444Z,6.03
2023-11-20T03:35:23.485Z,12.40
2023-11-20T03:37:50.144Z,6.72
2023-11-20T03:40:16.865Z,5.75
2023-11-20T03:42:43.707Z,5.70
2023-11-20T03:45:10.620Z,5.82
2023-11-20T03:47:37.399Z,8.48
2023-11-20T03:50:05.043Z,6.50
2023-11-20T03:52:31.738Z,5.25
2023-11-20T03:54:59.130Z,6.97
2023-11-20T03:57:25.777Z,6.20
2023-11-20T03:59:52.492Z,6.75
2023-11-20T04:02:19.156Z,6.13
2023-11-20T04:04:46.201Z,7.28
2023-11-20T04:07:13.281Z,5.75
2023-11-20T04:09:40.229Z,6.22
2023-11-20T04:12:07.350Z,5.38
2023-11-20T04:14:34.038Z,5.03
2023-11-20T04:17:00.764Z,7.00
2023-11-20T04:19:27.966Z,7.63
2023-11-20T04:21:54.993Z,7.32
2023-11-20T04:24:21.856Z,5.93
2023-11-20T04:26:48.744Z,5.95
2023-11-20T04:29:15.553Z,4.75
2023-11-20T04:31:42.232Z,7.95
2023-11-20T04:34:08.937Z,7.22
2023-11-20T04:36:35.647Z,6.53
2023-11-20T04:39:02.570Z,6.40
2023-11-20T04:41:29.267Z,7.53
2023-11-20T04:43:56.088Z,8.85
2023-11-20T04:46:22.741Z,8.30
2023-11-20T04:48:49.422Z,7.15
2023-11-20T04:51:23.526Z,6.88
2023-11-20T04:53:50.786Z,8.48
2023-11-20T04:56:17.497Z,6.60
2023-11-20T04:58:47.494Z,6.75
2023-11-20T05:01:15.115Z,7.47
2023-11-20T05:03:46.414Z,5.47
2023-11-20T05:06:14.740Z,5.80
2023-11-20T05:08:41.602Z,6.53
2023-11-20T05:11:08.242Z,6.63
2023-11-20T05:13:34.930Z,6.75
2023-11-20T05:16:01.708Z,6.07
2023-11-20T05:18:28.395Z,5.82
2023-11-20T05:20:55.067Z,6.55
2023-11-20T05:23:21.766Z,6.90
2023-11-20T05:25:48.400Z,8.88
2023-11-20T05:28:16.234Z,7.72
2023-11-20T05:30:44.098Z,7.60
2023-11-20T05:33:11.986Z,9.75
2023-11-20T05:35:40.294Z,10.88
2023-11-20T05:38:06.995Z,6.10
2023-11-20T05:40:34.215Z,7.97
2023-11-20T05:43:01.512Z,9.57
2023-11-20T05:45:28.501Z,8.88
2023-11-20T05:47:55.416Z,8.02
2023-11-20T05:50:22.223Z,8.82
2023-11-20T05:52:49.020Z,9.60
2023-11-20T05:55:15.763Z,12.43
2023-11-20T05:57:42.464Z,9.20
2023-11-20T06:00:11.728Z,7.97
2023-11-20T06:02:38.814Z,7.22
2023-11-20T06:05:08.275Z,7.75
2023-11-20T06:07:36.575Z,8.38
2023-11-20T06:10:03.975Z,8.60
2023-11-20T06:12:30.818Z,9.48
2023-11-20T06:14:57.488Z,8.50
2023-11-20T06:17:24.262Z,7.60
2023-11-20T06:19:51.040Z,7.32
2023-11-20T06:22:17.718Z,9.15
2023-11-20T06:24:44.718Z,7.43
2023-11-20T06:27:11.629Z,7.15
2023-11-20T06:29:40.175Z,18.80
2023-11-20T06:32:08.245Z,7.60
2023-11-20T06:34:35.292Z,9.77
2023-11-20T06:37:02.547Z,6.82
2023-11-20T06:39:29.258Z,7.38
2023-11-20T06:41:56.001Z,6.20
2023-11-20T06:44:23.760Z,8.95
2023-11-20T06:46:52.964Z,8.10
2023-11-20T06:49:22.984Z,5.97
2023-11-20T06:51:49.672Z,6.63
2023-11-20T06:54:16.727Z,4.90
2023-11-20T06:56:43.448Z,8.02
2023-11-20T06:59:10.106Z,6.72
2023-11-20T07:01:36.724Z,6.43
2023-11-20T07:04:03.798Z,8.10
2023-11-20T07:06:30.503Z,12.35
2023-11-20T07:08:57.191Z,5.93
2023-11-20T07:11:23.864Z,5.32
2023-11-20T07:13:50.727Z,7.07
2023-11-20T07:16:17.454Z,6.90
2023-11-20T07:18:44.204Z,7.18
2023-11-20T07:21:11.270Z,5.28
2023-11-20T07:23:38.154Z,7.68
2023-11-20T07:26:04.906Z,6.50
2023-11-20T07:28:31.581Z,7.00
2023-11-20T07:30:58.284Z,8.55
2023-11-20T07:33:25.000Z,8.45
2023-11-20T07:35:53.032Z,6.55
2023-11-20T07:38:19.916Z,7.95
2023-11-20T07:40:46.997Z,5.82
2023-11-20T07:43:13.817Z,7.10
2023-11-20T07:45:40.662Z,10.18
2023-11-20T07:48:09.143Z,6.82
2023-11-20T07:50:35.942Z,12.52
2023-11-20T07:53:05.541Z,7.03
2023-11-20T07:55:32.785Z,8.48
2023-11-20T07:58:00.017Z,7.35
2023-11-20T08:00:26.742Z,11.15
2023-11-20T08:02:54.093Z,7.40
2023-11-20T08:05:21.080Z,7.55
2023-11-20T08:07:48.183Z,5.53
2023-11-20T08:10:17.378Z,6.93
2023-11-20T08:12:44.101Z,9.32
2023-11-20T08:15:13.633Z,6.32
2023-11-20T08:17:41.142Z,7.43
2023-11-20T08:20:09.133Z,8.35
2023-11-20T08:22:37.185Z,10.13
2023-11-20T08:25:04.726Z,7.28
2023-11-20T08:27:31.553Z,8.38
2023-11-20T08:29:58.258Z,10.05
2023-11-20T08:32:26.406Z,9.45
2023-11-20T08:34:53.148Z,8.70
2023-11-20T08:37:19.907Z,8.40
2023-11-20T08:39:48.668Z,6.40
2023-11-20T08:42:15.459Z,7.63
2023-11-20T08:44:42.470Z,7.03
2023-11-20T08:47:10.395Z,6.03
2023-11-20T08:49:38.219Z,6.90
2023-11-20T08:52:07.093Z,9.45
2023-11-20T08:54:35.137Z,7.38
2023-11-20T08:57:02.428Z,7.10
2023-11-20T08:59:32.473Z,7.95
2023-11-20T09:01:59.741Z,11.32
2023-11-20T09:04:27.540Z,8.68
2023-11-20T09:06:54.463Z,8.88
2023-11-20T09:09:22.068Z,7.03
2023-11-20T09:11:48.858Z,7.85
2023-11-20T09:14:15.832Z,6.63
2023-11-20T09:16:42.617Z,5.97
2023-11-20T09:19:09.563Z,8.93
2023-11-20T09:21:36.403Z,7.22
2023-11-20T09:24:03.264Z,8.48
2023-11-20T09:26:29.912Z,7.70
2023-11-20T09:28:56.659Z,9.65
2023-11-20T09:31:23.624Z,7.05
2023-11-20T09:33:51.747Z,8.07
2023-11-20T09:36:20.115Z,8.02
2023-11-20T09:38:47.054Z,8.27
2023-11-20T09:41:14.588Z,7.65
2023-11-20T09:43:43.476Z,6.50
2023-11-20T09:46:12.193Z,7.15
2023-11-20T09:48:39.933Z,8.43
2023-11-20T09:51:13.593Z,12.13
2023-11-20T09:53:43.148Z,8.30
2023-11-20T09:56:13.220Z,9.82
2023-11-20T09:58:42.057Z,6.97
2023-11-20T10:01:12.242Z,7.97
2023-11-20T10:03:41.267Z,4.97
2023-11-20T10:06:11.420Z,7.10
2023-11-20T10:08:42.112Z,6.22
2023-11-20T10:11:12.411Z,7.50
2023-11-20T10:13:40.822Z,8.57
2023-11-20T10:16:14.514Z,7.72
2023-11-20T10:18:43.711Z,9.45
2023-11-20T10:21:12.616Z,8.00
2023-11-20T10:23:41.176Z,8.55
2023-11-20T10:26:09.110Z,10.45
2023-11-20T10:28:40.435Z,8.93
2023-11-20T10:31:07.926Z,8.75
2023-11-20T10:33:37.813Z,8.70
2023-11-20T10:36:18.465Z,11.52
2023-11-20T10:38:46.022Z,7.13
2023-11-20T10:41:13.415Z,10.43
2023-11-20T10:43:42.113Z,10.00
2023-11-20T10:46:09.461Z,12.13
2023-11-20T10:48:40.280Z,10.30
2023-11-20T10:51:10.191Z,7.60
2023-11-20T10:53:41.626Z,9.77
2023-11-20T10:56:09.330Z,11.05
2023-11-20T10:58:36.309Z,10.70
2023-11-20T11:01:03.512Z,9.90
2023-11-20T11:03:34.426Z,13.40
2023-11-20T11:06:11.161Z,10.25
2023-11-20T11:08:38.908Z,6.68
2023-11-20T11:11:05.826Z,11.45
2023-11-20T11:13:33.755Z,9.05
2023-11-20T11:16:03.986Z,13.10
2023-11-20T11:18:34.934Z,12.02
2023-11-20T11:21:03.331Z,12.25
2023-11-20T11:23:52.089Z,10.55
2023-11-20T11:26:36.783Z,8.30
2023-11-20T11:29:09.558Z,10.07
2023-11-20T11:32:02.511Z,8.55
2023-11-20T11:34:55.070Z,6.55
2023-11-20T11:37:47.253Z,7.97
2023-11-20T11:40:26.483Z,10.75
2023-11-20T11:42:58.675Z,10.40
2023-11-20T11:45:29.464Z,11.38
2023-11-20T11:47:56.136Z,11.05
2023-11-20T11:50:23.276Z,13.02
2023-11-20T11:52:51.336Z,10.27
2023-11-20T11:55:18.067Z,16.38
2023-11-20T11:58:03.231Z,20.40
2023-11-20T12:00:32.123Z,12.07
2023-11-20T12:03:03.486Z,9.00
2023-11-20T12:05:33.030Z,8.07
2023-11-20T12:08:04.286Z,9.23
2023-11-20T12:10:42.067Z,11.35
2023-11-20T12:13:09.595Z,25.30
2023-11-20T12:16:04.964Z,6.60
2023-11-20T12:18:39.123Z,7.57
2023-11-20T12:21:11.361Z,5.68
2023-11-20T12:23:40.339Z,8.60
2023-11-20T12:26:12.427Z,12.05
2023-11-20T12:28:41.771Z,12.55
2023-11-20T12:31:13.031Z,31.55
2023-11-20T12:33:43.095Z,42.40
2023-11-20T12:36:11.344Z,40.30
2023-11-20T12:38:39.016Z,37.08
2023-11-20T12:41:09.026Z,19.50
2023-11-20T12:43:39.655Z,28.95
2023-11-20T12:46:08.315Z,31.77
2023-11-20T12:48:37.989Z,20.92
2023-11-20T12:51:08.016Z,12.15
2023-11-20T12:53:37.503Z,16.17
2023-11-20T12:56:06.364Z,15.13
2023-11-20T12:58:33.682Z,6.85
2023-11-20T13:01:05.753Z,8.15
2023-11-20T13:03:35.940Z,5.05
2023-11-20T13:06:06.025Z,5.53
2023-11-20T13:08:36.125Z,6.68
2023-11-20T13:11:03.329Z,5.68
2023-11-20T13:13:33.812Z,5.63
2023-11-20T13:16:01.327Z,5.82
2023-11-20T13:18:29.924Z,5.90
2023-11-20T13:20:57.269Z,8.27
2023-11-20T13:23:34.783Z,9.48
2023-11-20T13:26:09.879Z,10.52
2023-11-20T13:28:37.606Z,8.67
2023-11-20T13:31:08.842Z,8.50
2023-11-20T13:33:43.115Z,12.63
2023-11-20T13:36:11.865Z,11.30
2023-11-20T13:38:39.399Z,8.25
2023-11-20T13:41:09.810Z,7.78
2023-11-20T13:43:36.699Z,6.80
2023-11-20T13:46:03.758Z,6.43
2023-11-20T13:48:33.689Z,6.55
2023-11-20T13:51:01.330Z,8.70
2023-11-20T13:53:28.091Z,10.00
2023-11-20T13:55:56.336Z,6.82
2023-11-20T13:58:25.396Z,7.57
2023-11-20T14:00:53.857Z,11.25
2023-11-20T14:03:21.216Z,7.38
2023-11-20T14:05:48.995Z,11.80
2023-11-20T14:08:16.504Z,8.23
2023-11-20T14:10:52.595Z,8.02
2023-11-20T14:13:24.959Z,8.57
2023-11-20T14:15:52.238Z,6.95
2023-11-20T14:18:21.299Z,9.60
2023-11-20T14:20:48.230Z,10.85
2023-11-20T14:23:14.859Z,9.55
2023-11-20T14:25:51.079Z,6.43
2023-11-20T14:28:28.866Z,8.15
2023-11-20T14:30:55.753Z,7.97
2023-11-20T14:33:22.410Z,14.88
2023-11-20T14:35:49.355Z,15.88
2023-11-20T14:38:16.151Z,18.13
2023-11-20T14:40:43.021Z,17.55
2023-11-20T14:43:09.982Z,17.77
2023-11-20T14:45:38.342Z,21.13
2023-11-20T14:48:05.455Z,22.33
2023-11-20T14:50:32.112Z,19.30
2023-11-20T14:52:58.787Z,12.90
2023-11-20T14:55:25.529Z,15.75
2023-11-20T14:57:53.549Z,14.68
2023-11-20T15:00:21.469Z,22.02
2023-11-20T15:02:51.352Z,19.80
2023-11-20T15:05:18.579Z,13.27
2023-11-20T15:07:45.609Z,13.10
2023-11-20T15:10:17.041Z,14.82
2023-11-20T15:12:44.980Z,16.77
2023-11-20T15:15:13.270Z,16.20
2023-11-20T15:17:42.231Z,21.67
2023-11-20T15:20:19.167Z,35.25
2023-11-20T15:22:47.768Z,38.88
2023-11-20T15:25:14.741Z,39.17
2023-11-20T15:27:42.340Z,31.40
2023-11-20T15:30:09.594Z,33.63
2023-11-20T15:32:36.297Z,27.30
2023-11-20T15:35:04.327Z,25.63
2023-11-20T15:37:33.144Z,25.02
2023-11-20T15:40:00.208Z,24.10
2023-11-20T15:42:27.066Z,19.95
2023-11-20T15:44:53.747Z,18.67
2023-11-20T15:47:20.567Z,17.75
2023-11-20T15:49:47.947Z,15.55
2023-11-20T15:52:14.720Z,16.40
2023-11-20T15:54:41.444Z,18.60
2023-11-20T15:57:08.175Z,14.82
2023-11-20T15:59:37.692Z,15.85
2023-11-20T16:02:04.690Z,12.32
2023-11-20T16:04:32.607Z,9.98
2023-11-20T16:07:00.181Z,12.88
2023-11-20T16:09:26.964Z,12.27
2023-11-20T16:11:54.090Z,10.88
2023-11-20T16:14:26.889Z,13.85
2023-11-20T16:16:54.489Z,14.20
2023-11-20T16:19:22.940Z,16.67
2023-11-20T16:21:49.884Z,11.77
2023-11-20T16:24:17.148Z,16.17
2023-11-20T16:26:43.954Z,12.88
2023-11-20T16:29:10.613Z,15.73
2023-11-20T16:31:37.509Z,13.52
2023-11-20T16:34:04.431Z,16.48
2023-11-20T16:36:31.285Z,15.50
2023-11-20T16:38:59.552Z,20.88
2023-11-20T16:41:26.427Z,13.52
2023-11-20T16:43:53.934Z,16.58
2023-11-20T16:46:24.773Z,17.23
2023-11-20T16:48:52.262Z,9.68
2023-11-20T16:51:20.010Z,9.93
2023-11-20T16:53:47.961Z,13.10
2023-11-20T16:56:15.432Z,10.20
2023-11-20T16:58:42.350Z,12.23
2023-11-20T17:01:11.189Z,10.63
2023-11-20T17:03:38.230Z,13.27
2023-11-20T17:06:07.950Z,13.20
2023-11-20T17:08:35.737Z,10.75
2023-11-20T17:11:03.067Z,11.82
2023-11-20T17:13:29.808Z,13.93
2023-11-20T17:15:56.826Z,13.88
2023-11-20T17:18:23.592Z,9.45
2023-11-20T17:20:51.088Z,11.10
2023-11-20T17:23:17.811Z,14.20
2023-11-20T17:25:44.640Z,11.23
2023-11-20T17:28:11.559Z,10.68
2023-11-20T17:30:38.331Z,17.58
2023-11-20T17:33:05.061Z,11.63
2023-11-20T17:35:32.772Z,13.80
2023-11-20T17:37:59.432Z,13.85
2023-11-20T17:40:26.215Z,16.58
2023-11-20T17:42:52.915Z,13.05
2023-11-20T17:45:19.601Z,20.55
2023-11-20T17:47:46.588Z,25.63
2023-11-20T17:50:13.311Z,26.70
2023-11-20T17:52:40.273Z,31.42
2023-11-20T17:55:10.216Z,24.00
2023-11-20T17:57:37.411Z,16.15
2023-11-20T18:00:11.919Z,16.65
2023-11-20T18:02:39.036Z,18.67
2023-11-20T18:05:08.724Z,18.00
2023-11-20T18:07:37.773Z,15.98
2023-11-20T18:10:12.412Z,21.30
2023-11-20T18:12:42.362Z,16.23
2023-11-20T18:15:11.941Z,13.65
2023-11-20T18:17:40.768Z,13.00
2023-11-20T18:20:10.524Z,15.93
2023-11-20T18:22:37.525Z,16.70
2023-11-20T18:25:04.734Z,15.38
2023-11-20T18:27:31.517Z,21.00
2023-11-20T18:29:58.198Z,16.98
2023-11-20T18:32:25.050Z,12.98
2023-11-20T18:34:51.872Z,11.75
2023-11-20T18:37:19.201Z,13.63
2023-11-20T18:39:48.624Z,13.77
2023-11-20T18:42:15.822Z,18.17
2023-11-20T18:44:45.610Z,19.55
2023-11-20T18:47:12.443Z,21.15
2023-11-20T18:49:42.152Z,15.63
2023-11-20T18:52:08.966Z,16.92
2023-11-20T18:54:36.259Z,15.00
2023-11-20T18:57:03.351Z,14.55
2023-11-20T18:59:32.463Z,20.85
2023-11-20T19:01:59.318Z,17.83
2023-11-20T19:04:26.127Z,15.05
2023-11-20T19:06:56.135Z,11.85
2023-11-20T19:09:23.603Z,16.15
2023-11-20T19:11:50.412Z,15.35
2023-11-20T19:14:17.059Z,20.52
2023-11-20T19:16:43.756Z,15.02
2023-11-20T19:19:11.579Z,18.42
2023-11-20T19:21:38.381Z,17.05
2023-11-20T19:24:05.818Z,17.65
2023-11-20T19:26:35.292Z,20.20
2023-11-20T19:29:01.998Z,20.42
2023-11-20T19:31:28.750Z,18.90
2023-11-20T19:33:55.531Z,21.65
2023-11-20T19:36:22.350Z,15.98
2023-11-20T19:38:51.335Z,17.10
2023-11-20T19:41:18.083Z,18.63
2023-11-20T19:43:44.791Z,14.93
2023-11-20T19:46:11.786Z,12.65
2023-11-20T19:48:38.618Z,14.88
2023-11-20T19:51:05.814Z,14.10
2023-11-20T19:53:32.753Z,13.82
2023-11-20T19:55:59.381Z,12.60
2023-11-20T19:58:26.296Z,14.52
2023-11-20T20:00:55.472Z,14.52
2023-11-20T20:03:22.988Z,18.15
2023-11-20T20:05:51.701Z,13.40
2023-11-20T20:08:18.683Z,18.52
2023-11-20T20:10:45.634Z,14.93
2023-11-20T20:13:12.635Z,13.77
2023-11-20T20:15:39.614Z,12.93
2023-11-20T20:18:06.545Z,19.58
2023-11-20T20:20:33.538Z,13.63
2023-11-20T20:23:00.508Z,12.82
2023-11-20T20:25:27.487Z,15.70
2023-11-20T20:27:54.262Z,15.10
2023-11-20T20:30:21.947Z,12.25
2023-11-20T20:32:50.942Z,16.65
2023-11-20T20:35:17.658Z,19.38
2023-11-20T20:37:44.505Z,17.15
2023-11-20T20:40:16.664Z,13.52
2023-11-20T20:42:44.042Z,17.45
2023-11-20T20:45:11.061Z,11.52
2023-11-20T20:47:37.945Z,15.00
2023-11-20T20:50:05.276Z,14.55
2023-11-20T20:52:32.097Z,11.70
2023-11-20T20:55:02.147Z,11.60
2023-11-20T20:57:29.993Z,11.43
2023-11-20T20:59:56.877Z,12.45
2023-11-20T21:02:23.813Z,14.32
2023-11-20T21:04:51.299Z,13.23
2023-11-20T21:07:18.073Z,11.80
2023-11-20T21:09:46.165Z,10.95
2023-11-20T21:12:12.919Z,11.45
2023-11-20T21:14:39.585Z,11.55
2023-11-20T21:17:06.241Z,14.10
2023-11-20T21:19:33.200Z,12.80
2023-11-20T21:22:00.147Z,17.23
2023-11-20T21:24:27.083Z,12.00
2023-11-20T21:26:53.799Z,13.13
2023-11-20T21:29:20.952Z,11.95
2023-11-20T21:31:48.110Z,15.32
2023-11-20T21:34:17.909Z,14.80
2023-11-20T21:36:44.627Z,13.18
2023-11-20T21:39:19.551Z,17.85
2023-11-20T21:41:50.281Z,12.77
2023-11-20T21:44:18.225Z,11.90
2023-11-20T21:46:45.489Z,12.27
2023-11-20T21:49:12.612Z,16.05
2023-11-20T21:51:39.262Z,9.82
2023-11-20T21:54:06.268Z,14.05
2023-11-20T21:56:34.855Z,18.38
2023-11-20T21:59:01.529Z,10.65
2023-11-20T22:01:28.451Z,11.73
2023-11-20T22:03:55.381Z,11.88
2023-11-20T22:06:23.156Z,10.65
2023-11-20T22:08:50.217Z,15.27
2023-11-20T22:11:18.551Z,9.82
2023-11-20T22:13:46.569Z,13.70
2023-11-20T22:16:14.252Z,12.32
2023-11-20T22:18:44.267Z,14.00
2023-11-20T22:21:11.019Z,10.90
2023-11-20T22:23:38.066Z,11.40
2023-11-20T22:26:07.953Z,11.95
2023-11-20T22:28:34.676Z,11.73
2023-11-20T22:31:02.247Z,11.20
2023-11-20T22:33:28.959Z,13.30
2023-11-20T22:35:55.579Z,13.77
2023-11-20T22:38:22.227Z,13.30
2023-11-20T22:40:49.010Z,15.73
2023-11-20T22:43:15.762Z,14.02
2023-11-20T22:45:42.571Z,13.60
2023-11-20T22:48:09.589Z,15.82
2023-11-20T22:50:36.297Z,9.75
2023-11-20T22:53:02.999Z,11.45
2023-11-20T22:55:29.677Z,11.00
2023-11-20T22:57:56.346Z,11.43
2023-11-20T23:00:28.202Z,12.38
2023-11-20T23:02:55.486Z,10.60
2023-11-20T23:05:22.897Z,10.68
2023-11-20T23:07:50.252Z,11.18
2023-11-20T23:10:17.072Z,14.38
2023-11-20T23:12:43.895Z,15.35
2023-11-20T23:15:17.656Z,12.82
2023-11-20T23:17:44.755Z,11.43
2023-11-20T23:20:19.647Z,13.60
2023-11-20T23:22:47.234Z,14.05
2023-11-20T23:25:20.201Z,10.70
2023-11-20T23:27:48.973Z,19.02
2023-11-20T23:30:18.289Z,13.07
2023-11-20T23:32:46.427Z,13.93
2023-11-20T23:35:13.353Z,10.63
2023-11-20T23:37:41.482Z,10.38
2023-11-20T23:40:12.760Z,12.85
2023-11-20T23:42:40.059Z,13.40
2023-11-20T23:45:07.441Z,9.35
2023-11-20T23:47:37.663Z,14.48
2023-11-20T23:50:05.589Z,10.93
2023-11-20T23:52:32.856Z,10.75
2023-11-20T23:54:59.627Z,9.73
2023-11-20T23:57:26.404Z,16.02
2023-11-20T23:59:53.030Z,13.10
